createdAt,value
2022-12-18T10:34:58.305Z,84.38
2022-12-18T10:35:53.320Z,84.45
2022-12-18T10:36:52.459Z,84.56
2022-12-18T10:37:52.219Z,84.45
2022-12-18T10:38:52.173Z,84.24
2022-12-18T10:39:52.120Z,84.13
2022-12-18T10:40:52.057Z,84.20
2022-12-18T10:41:51.990Z,84.42
2022-12-18T10:42:51.929Z,84.52
2022-12-18T10:43:51.869Z,84.09
2022-12-18T10:44:51.820Z,83.84
2022-12-18T10:45:51.744Z,83.84
2022-12-18T10:46:51.818Z,83.74
2022-12-18T10:47:51.620Z,83.74
2022-12-18T10:48:51.553Z,83.53
2022-12-18T10:49:51.462Z,83.38
2022-12-18T10:51:10.505Z,83.59
2022-12-18T10:51:52.318Z,83.48
2022-12-18T10:52:51.240Z,83.59
2022-12-18T10:53:51.167Z,83.91
2022-12-18T10:54:51.089Z,84.02
2022-12-18T10:55:51.011Z,84.09
2022-12-18T10:56:50.929Z,84.37
2022-12-18T10:57:50.850Z,84.41
2022-12-18T10:58:50.778Z,84.05
2022-12-18T10:59:50.692Z,84.05
2022-12-18T11:00:50.633Z,84.16
2022-12-18T11:01:50.603Z,83.73
2022-12-18T11:02:50.551Z,83.73
2022-12-18T11:03:50.443Z,83.84
2022-12-18T11:04:50.289Z,83.95
2022-12-18T11:05:50.204Z,83.80
2022-12-18T11:06:50.151Z,83.80
2022-12-18T11:07:50.032Z,83.91
2022-12-18T11:08:49.945Z,83.98
2022-12-18T11:09:49.850Z,84.08
2022-12-18T11:10:49.769Z,84.08
2022-12-18T11:11:49.682Z,84.15
2022-12-18T11:12:49.602Z,84.15
2022-12-18T11:13:49.482Z,84.26
2022-12-18T11:14:49.448Z,84.33
2022-12-18T11:15:49.412Z,84.44
2022-12-18T11:17:23.853Z,84.54
2022-12-18T11:17:50.120Z,84.22
2022-12-18T11:18:49.021Z,84.08
2022-12-18T11:19:48.912Z,84.08
2022-12-18T11:20:48.822Z,84.14
2022-12-18T11:21:48.732Z,83.86
2022-12-18T11:22:48.622Z,83.72
2022-12-18T11:23:48.522Z,83.72
2022-12-18T11:25:08.343Z,83.94
2022-12-18T11:25:49.336Z,84.14
2022-12-18T11:26:48.260Z,84.22
2022-12-18T11:27:48.142Z,84.00
2022-12-18T11:28:48.034Z,83.79
2022-12-18T11:29:47.923Z,83.58
2022-12-18T11:30:47.852Z,83.47
2022-12-18T11:31:47.745Z,83.44
2022-12-18T11:32:47.616Z,83.36
2022-12-18T11:34:05.147Z,83.33
2022-12-18T11:34:48.412Z,83.54
2022-12-18T11:35:47.292Z,83.86
2022-12-18T11:36:47.203Z,83.75
2022-12-18T11:37:47.086Z,83.54
2022-12-18T11:38:46.986Z,83.22
2022-12-18T11:39:46.870Z,83.07
2022-12-18T11:40:46.769Z,82.97
2022-12-18T16:56:23.898Z,92.17
2022-12-18T16:57:24.667Z,92.17
2022-12-18T16:58:23.836Z,92.27
2022-12-18T16:59:23.747Z,92.38
2022-12-18T17:00:23.707Z,92.32
2022-12-18T17:01:23.827Z,92.17
2022-12-18T17:02:24.451Z,92.17
2022-12-18T17:03:23.677Z,92.06
2022-12-18T17:04:23.496Z,92.10
2022-12-18T17:05:23.471Z,92.70
2022-12-18T17:06:23.387Z,93.02
2022-12-18T17:07:23.322Z,92.81
2022-12-18T17:08:23.291Z,92.74
2022-12-18T17:09:23.217Z,92.60
2022-12-18T17:10:23.157Z,92.60
2022-12-18T17:11:23.079Z,92.64
2022-12-18T17:12:23.033Z,92.70
2022-12-18T17:13:25.868Z,92.60
2022-12-18T17:14:22.901Z,92.49
2022-12-18T17:15:22.825Z,92.32
2022-12-18T17:16:22.848Z,92.10
2022-12-18T17:17:23.604Z,92.10
2022-12-18T17:18:22.640Z,92.32
2022-12-18T17:19:22.569Z,92.85
2022-12-18T17:20:22.511Z,93.28
2022-12-18T17:21:22.490Z,93.17
2022-12-18T17:22:22.374Z,92.96
2022-12-18T17:23:22.328Z,92.64
2022-12-18T17:24:22.240Z,92.53
2022-12-18T17:25:22.196Z,92.42
2022-12-18T17:26:22.109Z,92.10
2022-12-18T17:27:22.059Z,91.99
2022-12-18T17:28:21.991Z,92.21
2022-12-18T17:29:21.921Z,92.53
2022-12-18T17:30:21.849Z,92.74
2022-12-18T17:31:21.840Z,92.64
2022-12-18T17:32:21.750Z,92.42
2022-12-18T17:33:21.650Z,92.21
2022-12-18T17:34:21.610Z,92.14
2022-12-18T17:35:21.531Z,92.10
2022-12-18T17:36:21.472Z,92.14
2022-12-18T17:37:21.402Z,92.42
2022-12-18T17:38:21.330Z,92.53
2022-12-18T17:39:21.273Z,92.64
2022-12-18T17:40:21.206Z,92.57
2022-12-18T17:41:21.133Z,92.36
2022-12-18T17:42:21.101Z,92.57
2022-12-18T17:43:21.011Z,92.85
2022-12-18T17:44:20.941Z,92.96
2022-12-18T17:45:20.872Z,92.68
2022-12-18T17:46:20.858Z,92.46
2022-12-18T17:47:20.743Z,92.36
2022-12-18T17:48:20.697Z,92.25
2022-12-18T17:49:20.611Z,92.03
2022-12-18T17:50:20.550Z,92.03
2022-12-18T17:51:20.494Z,91.93
2022-12-18T17:52:20.436Z,92.25
2022-12-18T17:53:20.364Z,92.68
2022-12-18T17:54:20.290Z,92.79
2022-12-18T17:55:20.212Z,92.36
2022-12-18T17:56:20.155Z,92.03
2022-12-18T17:57:20.079Z,91.71
2022-12-18T17:58:20.011Z,91.75
2022-12-18T17:59:19.962Z,91.75
2022-12-18T18:00:19.896Z,91.75
2022-12-18T18:01:19.950Z,91.75
2022-12-18T18:02:19.956Z,91.93
2022-12-18T18:03:19.881Z,92.18
2022-12-18T18:04:19.742Z,92.14
2022-12-18T18:05:19.562Z,92.18
2022-12-18T18:06:19.514Z,91.93
2022-12-18T18:07:19.434Z,91.93
2022-12-18T18:08:19.393Z,92.08
2022-12-18T18:09:19.340Z,92.18
2022-12-18T18:10:19.273Z,92.36
2022-12-18T18:11:19.203Z,92.46
2022-12-18T18:12:19.158Z,92.68
2022-12-18T18:13:19.097Z,92.89
2022-12-18T18:14:19.063Z,93.00
2022-12-18T18:15:18.964Z,93.00
2022-12-18T18:16:19.026Z,93.07
2022-12-18T18:17:18.833Z,92.89
2022-12-18T18:18:18.783Z,92.74
2022-12-18T18:19:18.753Z,92.68
2022-12-18T18:20:22.500Z,92.57
2022-12-18T18:21:18.594Z,92.53
2022-12-18T18:22:18.736Z,92.53
2022-12-18T18:23:18.493Z,92.53
2022-12-18T18:24:18.445Z,92.74
2022-12-18T18:25:18.377Z,92.74
2022-12-18T18:26:18.296Z,92.74
2022-12-18T18:27:18.234Z,92.53
2022-12-18T18:28:18.187Z,92.74
2022-12-18T18:29:18.134Z,93.17
2022-12-18T18:30:18.085Z,93.60
2022-12-18T18:31:18.036Z,93.82
2022-12-18T18:32:17.946Z,93.99
2022-12-18T18:33:17.885Z,93.88
2022-12-18T18:34:17.830Z,93.88
2022-12-18T18:35:45.063Z,93.88
2022-12-18T18:36:18.695Z,93.77
2022-12-18T18:37:17.657Z,93.66
2022-12-18T18:38:17.565Z,93.66
2022-12-18T18:39:17.518Z,93.66
2022-12-18T18:40:17.465Z,93.84
2022-12-18T18:41:17.359Z,93.99
2022-12-18T18:42:17.309Z,93.95
